Sutton, ND

11:03 PM CDT die 20o September, anno 2014 (GMT -0500)
Jamestown Municipal | Change Station
CLOSE
Current Station
Airport
Location: Jamestown,
Elevation: 1499 ft
Nearby Weather Stations

Elev 1499 ft 46.93 °N, 98.67 °W | Updated 7 minutes ago

Plerumque Nubila
Plerumque Nubila
58 °F
Feels Like 58 °F
N
10
Ventus Variabilis Ventus from Magis Zephyrus quam Aquilo

Hodie
High -- | Low -- °F
--% Chance of Precip.
Yesterday
High -- | Low -- °F
Precip. -- in
7:17 AM 7:35 PM
Waning Crescent, 9% visible
Pressio 30.01 in
Visibilitas 10.0 milia passuum
Clouds Aequaliter Nubila 7500 ft
Frigus in quo Ros apparet 45 °F
Umor 62%
Rainfall 0.10 in
Snow Depth Not available.
UV 0 out of 12
Pollen 3.50 out of 12
Air Quality Not available.
Flu Activity Not available.
METAR KJMS 210356Z AUTO 30009KT 10SM OVC075 14/07 A3001 RMK AO2 SLP163 T01440072

More Conditions Fewer Conditions

Pressio 30.01 in
Visibilitas 10.0 milia passuum
Clouds Aequaliter Nubila 7500 ft
Frigus in quo Ros apparet 45 °F
Umor 62%
Rainfall 0.10 in
Snow Depth Not available.
UV 0 out of 12
Pollen 3.50 out of 12
Air Quality Not available.
Flu Activity Not available.
METAR KJMS 210356Z AUTO 30009KT 10SM OVC075 14/07 A3001 RMK AO2 SLP163 T01440072

More Conditions Fewer Conditions

10-Day Weather Forecast

Almanac

Astronomy

Sep. 20, 2014 Rise Set
Actual Time 7:17 AM CDT 7:35 PM CDT
Civil Twilight 6:47 AM CDT 8:06 PM CDT
Nautical Twilight 6:11 AM CDT 8:42 PM CDT
Astronomical Twilight 5:33 AM CDT 9:19 PM CDT
Moon 3:47 AM CDT (9/20) 5:48 PM CDT (9/20)
Length Of Visible Light 13h 18m
Length of Day
12h 17m
Tomorrow will be 3m 22s shorter.
Waning Crescent, 9% of the Moon is Illuminated
Sep 21
Waning Crescent
Sep 24
New
Oct 1
First Quarter
Oct 8
Full
Oct 15
Last Quarter

Today's Extremes

State Highs State Lows

Community

WunderPhotos

Upload Photos

1,755,084 photos uploaded!

Nearby

Snow Depth

Station Depth Elevation
No new snow has been reported.

Earthquake Activity

City Distance Mag. Time & Date
No recent earthquake activity has been reported nearby.
Minimum magnitude displayed is 2.5.

Coastal Water Temperatures

Locus Calor
No Stations Reporting

Nearby Weather Stations